Search for airport 
image banner adimage banner adimage banner ad
image banner ad

PS64 - Morton's

Located in Cambridge Springs, United States

ICAO - PS64, IATA -

Data provided by Airmate  

General information

Coordinates: N41°49'30" W80°4'44"
Elevation is 1200 feet MSL.
Magnetic variation is -08° East
View others Airports in Pennsylvania

Operational data

Special qualification required
Current time UTC:
Current local time:
Weather at : KGKJ - Port Meadville ( 25 km )
METAR: KGKJ 182153Z AUTO 32005KT 10SM CLR 25/06 A3028 RMK AO2 SLP251 T02500056
View NOTAMs / SUP AIP / TFR affecting this airport [VIEW]
Communications frequencies: [VIEW]

Runways:

RWY identifierQFULength (ft)Width (ft)SurfaceLDA (ft)
09120050GRASS
27120050GRASS

Airport contact information

Address: Cambridge Springs United States

Satellite view of PS64